Time;durP1;ratioP1;P1;durP2;ratioP2;P2;SDS_P1;SDS_P2;PMS_P1;PMS_P2;Temp;Humidity;BMP_temperature;BMP_pressure;BME280_temperature;BME280_humidity;BME280_pressure;Samples;Min_cycle;Max_cycle;Signal;HPM_P1;HPM_P2
2023/03/12 00:01:23;;;;;;;18.67;14.55;;;-3.40;99.90;;;;;;5043915;28;20052;-73
2023/03/12 00:03:50;;;;;;;15.57;13.93;;;-3.30;99.90;;;;;;5042750;28;20533;-75
2023/03/12 00:06:18;;;;;;;18.17;13.68;;;-3.20;99.90;;;;;;5047797;28;20029;-75
2023/03/12 00:08:45;;;;;;;18.20;14.63;;;-3.20;99.90;;;;;;5013013;28;20128;-75
2023/03/12 00:11:18;;;;;;;20.00;15.23;;;-3.30;99.90;;;;;;5031119;28;20070;-75
2023/03/12 00:13:51;;;;;;;17.70;15.82;;;-3.30;99.90;;;;;;5048290;28;20132;-75
2023/03/12 00:16:19;;;;;;;21.75;16.40;;;-3.40;99.90;;;;;;5036345;28;20044;-75
2023/03/12 00:18:51;;;;;;;17.88;15.88;;;-3.20;99.90;;;;;;5049605;28;20521;-75
2023/03/12 00:21:20;;;;;;;18.83;15.38;;;-3.10;99.90;;;;;;5055076;28;20656;-75
2023/03/12 00:24:36;;;;;;;19.65;16.40;;;-3.20;99.90;;;;;;5041762;28;20731;-74
2023/03/12 00:27:03;;;;;;;19.38;16.77;;;-3.30;99.90;;;;;;5046719;28;20056;-75
2023/03/12 00:29:30;;;;;;;17.58;15.73;;;-3.30;99.90;;;;;;5031078;28;20071;-75
2023/03/12 00:31:56;;;;;;;23.38;17.20;;;-3.10;99.90;;;;;;5048161;28;20414;-75
2023/03/12 00:34:23;;;;;;;18.52;16.58;;;-3.10;99.90;;;;;;5031860;28;20037;-75
2023/03/12 00:39:31;;;;;;;17.98;16.23;;;-3.00;99.90;;;;;;4860396;29;20048;-72
2023/03/12 00:41:58;;;;;;;24.48;16.05;;;-2.80;99.90;;;;;;4859931;29;20044;-72
2023/03/12 00:44:25;;;;;;;18.35;15.65;;;-2.90;99.90;;;;;;4861821;29;20181;-70
2023/03/12 00:46:52;;;;;;;17.92;16.20;;;-2.80;99.90;;;;;;4856714;29;20486;-71
2023/03/12 00:49:18;;;;;;;19.23;16.02;;;-2.70;99.90;;;;;;4862623;29;20536;-71
2023/03/12 00:51:45;;;;;;;18.60;16.20;;;-2.60;99.90;;;;;;4860372;29;20042;-71
2023/03/12 00:54:12;;;;;;;17.77;15.48;;;-2.60;99.90;;;;;;4867692;29;20053;-70
2023/03/12 00:56:38;;;;;;;20.27;15.77;;;-2.70;99.90;;;;;;4861400;29;20041;-72
2023/03/12 00:59:08;;;;;;;18.35;15.68;;;-2.80;99.90;;;;;;4849580;29;20045;-71
2023/03/12 01:01:35;;;;;;;17.88;15.98;;;-2.80;99.90;;;;;;4828796;29;20501;-71
2023/03/12 01:04:02;;;;;;;17.85;16.08;;;-2.80;99.90;;;;;;4846789;29;20064;-71
2023/03/12 01:06:29;;;;;;;17.65;16.00;;;-2.80;99.90;;;;;;4849375;29;20053;-71
2023/03/12 01:08:56;;;;;;;18.95;16.92;;;-2.60;99.90;;;;;;4848244;29;20249;-71
2023/03/12 01:11:23;;;;;;;18.90;17.00;;;-2.70;99.90;;;;;;4842410;29;20896;-71
2023/03/12 01:13:50;;;;;;;21.75;16.60;;;-2.60;99.90;;;;;;4845428;29;20171;-71
2023/03/12 01:16:17;;;;;;;19.42;17.58;;;-2.60;99.90;;;;;;4851022;29;20105;-71
2023/03/12 01:18:43;;;;;;;19.50;17.35;;;-2.70;99.90;;;;;;4846820;29;20054;-71
2023/03/12 01:21:10;;;;;;;19.92;18.05;;;-2.70;99.90;;;;;;4846898;29;20041;-71
2023/03/12 01:23:37;;;;;;;19.60;17.50;;;-2.70;99.90;;;;;;4826874;29;20400;-71
2023/03/12 01:26:04;;;;;;;26.10;18.52;;;-2.70;99.90;;;;;;4842193;29;20049;-71
2023/03/12 01:28:30;;;;;;;20.38;18.33;;;-2.70;99.90;;;;;;4852227;29;20048;-71
2023/03/12 01:30:57;;;;;;;25.45;19.75;;;-2.70;99.90;;;;;;4846677;29;20423;-71
2023/03/12 01:33:24;;;;;;;22.20;19.17;;;-2.80;99.90;;;;;;4846830;29;20140;-72
2023/03/12 01:35:50;;;;;;;21.08;18.80;;;-2.70;99.90;;;;;;4847322;29;20045;-72
2023/03/12 01:38:19;;;;;;;21.75;19.48;;;-2.80;99.90;;;;;;4850314;29;20566;-72
2023/03/12 01:40:46;;;;;;;20.80;18.65;;;-2.80;99.90;;;;;;4849539;29;20053;-72
2023/03/12 01:43:30;;;;;;;20.35;18.25;;;-2.60;99.90;;;;;;4850986;29;20378;-71
2023/03/12 01:46:25;;;;;;;21.50;19.30;;;-2.70;99.90;;;;;;4829267;29;20063;-71
2023/03/12 01:49:08;;;;;;;20.65;18.55;;;-2.70;99.90;;;;;;4835415;29;20410;-71
2023/03/12 01:51:49;;;;;;;20.80;18.58;;;-2.90;99.90;;;;;;4848996;29;20460;-71
2023/03/12 01:54:24;;;;;;;22.40;19.77;;;-2.90;99.90;;;;;;4852435;29;20153;-71
2023/03/12 01:56:53;;;;;;;20.85;18.80;;;-2.70;99.90;;;;;;4852697;29;20041;-71
2023/03/12 01:59:25;;;;;;;23.40;17.05;;;-2.50;99.90;;;;;;4837500;29;20049;-71
2023/03/12 02:01:52;;;;;;;27.33;18.17;;;-2.50;99.90;;;;;;4844597;29;20080;-73
2023/03/12 02:04:22;;;;;;;17.05;15.23;;;-2.60;99.90;;;;;;4849304;29;20412;-71
2023/03/12 02:07:04;;;;;;;19.63;16.55;;;-2.60;99.90;;;;;;4847774;29;20052;-71
2023/03/12 02:09:35;;;;;;;19.40;15.15;;;-2.60;99.90;;;;;;4857846;29;20144;-73
2023/03/12 02:12:03;;;;;;;21.70;16.25;;;-2.60;99.90;;;;;;4851218;29;20457;-71
2023/03/12 02:14:31;;;;;;;18.92;15.73;;;-2.60;99.90;;;;;;4837596;29;20104;-71
2023/03/12 02:16:58;;;;;;;17.02;15.32;;;-2.60;99.90;;;;;;4850546;29;20500;-70
2023/03/12 02:19:47;;;;;;;20.23;16.55;;;-2.70;99.90;;;;;;4847316;29;20049;-71
2023/03/12 02:22:14;;;;;;;17.40;15.60;;;-2.60;99.90;;;;;;4855276;29;20092;-71
2023/03/12 02:24:53;;;;;;;25.13;17.20;;;-2.50;99.90;;;;;;4854931;29;20049;-72
2023/03/12 02:27:21;;;;;;;19.13;16.25;;;-2.50;99.90;;;;;;4837897;29;20663;-72
2023/03/12 02:29:49;;;;;;;21.02;17.40;;;-2.60;99.90;;;;;;4832473;29;20528;-71
2023/03/12 02:32:26;;;;;;;22.75;19.30;;;-2.60;99.90;;;;;;4854488;29;20045;-71
2023/03/12 02:34:55;;;;;;;20.67;18.52;;;-2.40;99.90;;;;;;4835654;29;20156;-72
2023/03/12 02:37:22;;;;;;;23.80;17.00;;;-2.40;99.90;;;;;;4857243;29;20456;-71
2023/03/12 02:39:56;;;;;;;18.52;16.67;;;-2.40;99.90;;;;;;4854511;29;20047;-71
2023/03/12 02:42:23;;;;;;;26.63;17.23;;;-2.50;99.90;;;;;;4860104;29;20216;-72
2023/03/12 02:44:50;;;;;;;22.45;17.38;;;-2.50;99.90;;;;;;4855985;29;20297;-71
2023/03/12 02:47:17;;;;;;;22.88;17.90;;;-2.60;99.90;;;;;;4838153;29;21200;-71
2023/03/12 02:49:45;;;;;;;20.90;18.67;;;-2.60;99.90;;;;;;4840099;29;20059;-71
2023/03/12 02:52:12;;;;;;;21.08;18.20;;;-2.60;99.90;;;;;;4874745;29;20553;-71
2023/03/12 02:54:41;;;;;;;20.35;18.02;;;-2.60;99.90;;;;;;4859311;29;20057;-73
2023/03/12 02:57:07;;;;;;;21.98;19.63;;;-2.60;99.90;;;;;;4853015;29;20838;-71
2023/03/12 02:59:34;;;;;;;28.00;19.65;;;-2.40;99.90;;;;;;4853140;29;20785;-71
2023/03/12 03:02:03;;;;;;;24.42;20.60;;;-2.40;99.90;;;;;;4856054;29;20079;-71
2023/03/12 03:04:30;;;;;;;24.55;19.60;;;-2.40;99.90;;;;;;4854061;29;20111;-71
2023/03/12 03:06:57;;;;;;;20.48;18.42;;;-2.30;99.90;;;;;;4867061;29;20568;-71
2023/03/12 03:09:24;;;;;;;23.15;19.52;;;-2.20;99.90;;;;;;4842716;29;20156;-71
2023/03/12 03:11:52;;;;;;;21.83;19.73;;;-2.10;99.90;;;;;;4852244;29;20048;-71
2023/03/12 03:14:19;;;;;;;28.77;19.85;;;-2.20;99.90;;;;;;4852862;29;20120;-71
2023/03/12 03:16:49;;;;;;;24.95;18.92;;;-2.10;99.90;;;;;;4850754;29;20049;-71
2023/03/12 03:19:16;;;;;;;19.83;17.90;;;-2.10;99.90;;;;;;4840887;29;20060;-71
2023/03/12 03:21:43;;;;;;;38.83;19.10;;;-2.10;99.90;;;;;;4847904;29;20045;-71
2023/03/12 03:24:09;;;;;;;21.75;19.10;;;-2.10;99.90;;;;;;4845360;29;20685;-71
2023/03/12 03:26:36;;;;;;;24.05;18.08;;;-2.10;99.90;;;;;;4832587;29;20526;-73
2023/03/12 03:29:03;;;;;;;21.30;19.02;;;-2.10;99.90;;;;;;4846171;29;20132;-71
2023/03/12 03:31:30;;;;;;;20.67;18.05;;;-2.10;99.90;;;;;;4848520;29;20045;-71
2023/03/12 03:33:57;;;;;;;20.77;18.13;;;-2.10;99.90;;;;;;4863098;29;20049;-71
2023/03/12 03:36:24;;;;;;;19.65;17.75;;;-2.20;99.90;;;;;;4833091;29;20053;-73
2023/03/12 03:39:00;;;;;;;19.58;17.67;;;-2.10;99.90;;;;;;4850099;29;20053;-71
2023/03/12 03:41:28;;;;;;;20.25;18.35;;;-1.90;99.90;;;;;;4847253;29;20197;-71
2023/03/12 03:43:57;;;;;;;23.25;18.75;;;-1.90;99.90;;;;;;4844389;29;20079;-71
2023/03/12 03:46:24;;;;;;;20.33;18.20;;;-1.80;99.90;;;;;;4827650;29;20118;-70
2023/03/12 03:48:57;;;;;;;21.50;19.08;;;-1.80;99.90;;;;;;4851350;29;20049;-71
2023/03/12 03:51:24;;;;;;;20.27;18.20;;;-1.80;99.90;;;;;;4851853;29;20056;-72
2023/03/12 03:53:55;;;;;;;22.27;18.90;;;-1.90;99.90;;;;;;4844485;29;20468;-71
2023/03/12 03:56:22;;;;;;;20.45;18.33;;;-2.10;99.90;;;;;;4848203;29;20359;-72
2023/03/12 03:58:49;;;;;;;19.73;17.88;;;-2.10;99.90;;;;;;4837415;29;20403;-70
2023/03/12 04:01:18;;;;;;;38.00;23.80;;;-2.00;99.90;;;;;;4834992;29;20064;-71
2023/03/12 04:03:46;;;;;;;19.52;17.67;;;-1.80;99.90;;;;;;4847033;29;20037;-71
2023/03/12 04:06:13;;;;;;;20.73;18.38;;;-1.80;99.90;;;;;;4833202;29;20410;-71
2023/03/12 04:08:40;;;;;;;20.80;18.23;;;-1.70;99.90;;;;;;4845312;29;20077;-71
2023/03/12 04:11:16;;;;;;;19.98;18.33;;;-1.70;99.90;;;;;;4851166;29;20530;-71
2023/03/12 04:13:44;;;;;;;20.35;18.45;;;-1.80;99.90;;;;;;4856202;29;20164;-71
2023/03/12 04:16:14;;;;;;;20.55;18.50;;;-1.90;99.90;;;;;;4833687;29;20071;-71
2023/03/12 04:18:42;;;;;;;21.20;17.05;;;-1.90;99.90;;;;;;4855245;29;20238;-71
2023/03/12 04:21:12;;;;;;;20.25;18.08;;;-2.00;99.90;;;;;;4834924;29;20464;-71
2023/03/12 04:23:40;;;;;;;20.50;18.27;;;-2.10;99.90;;;;;;4842667;29;20087;-71
2023/03/12 04:26:08;;;;;;;19.10;17.38;;;-2.10;99.90;;;;;;4854794;29;20060;-70
2023/03/12 04:28:36;;;;;;;19.15;17.38;;;-2.00;99.90;;;;;;4877874;29;20048;-71
2023/03/12 04:31:06;;;;;;;18.10;16.77;;;-2.10;99.90;;;;;;4842867;29;20080;-71
2023/03/12 04:33:38;;;;;;;20.67;17.73;;;-2.20;99.90;;;;;;4859090;29;20144;-71
2023/03/12 04:36:07;;;;;;;20.63;18.77;;;-2.10;99.90;;;;;;4847587;29;20109;-71
2023/03/12 04:38:36;;;;;;;22.67;20.17;;;-2.10;99.90;;;;;;4845070;29;20474;-71
2023/03/12 04:41:10;;;;;;;20.08;17.92;;;-2.10;99.90;;;;;;4854714;29;20808;-71
2023/03/12 04:43:42;;;;;;;21.05;19.23;;;-2.10;99.90;;;;;;4853709;29;20346;-70
2023/03/12 04:46:10;;;;;;;20.20;18.35;;;-2.00;99.90;;;;;;4846656;29;20148;-73
2023/03/12 04:48:43;;;;;;;19.63;17.77;;;-1.90;99.90;;;;;;4832967;29;20036;-71
2023/03/12 04:51:11;;;;;;;20.17;18.48;;;-1.90;99.90;;;;;;4838307;29;20152;-72
2023/03/12 04:53:39;;;;;;;18.98;17.35;;;-2.00;99.90;;;;;;4835054;29;20050;-72
2023/03/12 04:56:08;;;;;;;19.05;17.52;;;-2.00;99.90;;;;;;4845283;29;20533;-72
2023/03/12 04:58:35;;;;;;;20.30;18.15;;;-1.90;99.90;;;;;;4847338;29;20059;-72
2023/03/12 05:01:04;;;;;;;21.30;19.13;;;-1.70;99.90;;;;;;4835982;29;21058;-72
2023/03/12 05:03:31;;;;;;;20.08;18.58;;;-1.60;99.90;;;;;;4856804;24;20052;-71
2023/03/12 05:05:58;;;;;;;20.15;18.55;;;-1.60;99.90;;;;;;4824080;29;20304;-71
2023/03/12 05:08:25;;;;;;;19.58;17.83;;;-1.60;99.90;;;;;;4836756;29;20684;-71
2023/03/12 05:10:52;;;;;;;19.90;18.05;;;-1.60;99.90;;;;;;4824742;29;20525;-71
2023/03/12 05:13:21;;;;;;;20.70;19.05;;;-1.60;99.90;;;;;;4827643;29;20055;-72
2023/03/12 05:15:51;;;;;;;19.17;17.63;;;-1.50;99.90;;;;;;4825586;29;20265;-70
2023/03/12 05:18:20;;;;;;;21.08;18.95;;;-1.50;99.90;;;;;;4837605;29;20101;-72
2023/03/12 05:20:56;;;;;;;21.23;19.42;;;-1.40;99.90;;;;;;4827394;29;20065;-71
2023/03/12 05:23:23;;;;;;;20.48;18.67;;;-1.20;99.90;;;;;;4830376;29;20399;-72
2023/03/12 05:25:50;;;;;;;20.38;18.67;;;-1.10;99.90;;;;;;4842689;29;20170;-71
2023/03/12 05:28:16;;;;;;;20.20;19.00;;;-1.00;99.90;;;;;;4837936;29;20492;-71
2023/03/12 05:30:43;;;;;;;22.25;20.00;;;-1.00;99.90;;;;;;4827710;29;20092;-72
2023/03/12 05:33:10;;;;;;;20.67;19.25;;;-1.00;99.90;;;;;;4846551;29;20056;-71
2023/03/12 05:35:37;;;;;;;21.65;19.73;;;-0.90;99.90;;;;;;4820065;29;20572;-71
2023/03/12 05:38:03;;;;;;;20.42;18.80;;;-0.90;99.90;;;;;;4818682;29;20551;-72
2023/03/12 05:40:30;;;;;;;22.17;20.25;;;-0.90;99.90;;;;;;4834659;29;20081;-71
2023/03/12 05:42:58;;;;;;;21.75;20.10;;;-0.90;99.90;;;;;;4847162;29;20434;-71
2023/03/12 05:45:26;;;;;;;23.33;21.20;;;-0.80;99.90;;;;;;4839919;29;20041;-71
2023/03/12 05:47:55;;;;;;;22.48;20.73;;;-0.80;99.90;;;;;;4837062;29;20709;-71
2023/03/12 05:50:21;;;;;;;21.90;20.10;;;-0.80;99.90;;;;;;4834773;29;20229;-72
2023/03/12 05:52:48;;;;;;;21.60;19.73;;;-0.80;99.90;;;;;;4817890;29;20045;-70
2023/03/12 05:55:15;;;;;;;22.77;20.60;;;-0.80;99.90;;;;;;4852262;29;20232;-72
2023/03/12 05:57:42;;;;;;;20.67;19.05;;;-0.80;99.90;;;;;;4825590;29;20427;-72
2023/03/12 06:00:12;;;;;;;21.17;19.83;;;-0.80;99.90;;;;;;4835397;29;20102;-71
2023/03/12 06:02:41;;;;;;;25.08;23.20;;;-0.80;99.90;;;;;;4823171;29;20362;-71
2023/03/12 06:05:10;;;;;;;23.67;21.85;;;-0.80;99.90;;;;;;4817731;29;20429;-71
2023/03/12 06:07:37;;;;;;;26.23;24.50;;;-0.70;99.90;;;;;;4840403;29;20412;-71
2023/03/12 06:10:05;;;;;;;26.90;24.77;;;-0.60;99.90;;;;;;4822610;29;20113;-72
2023/03/12 06:12:31;;;;;;;25.48;23.77;;;-0.70;99.90;;;;;;4838680;29;20564;-72
2023/03/12 06:14:59;;;;;;;26.98;24.95;;;-0.70;99.90;;;;;;4835884;29;20550;-71
2023/03/12 06:17:28;;;;;;;25.85;24.02;;;-0.60;99.90;;;;;;4842133;29;20314;-72
2023/03/12 06:19:55;;;;;;;25.60;23.90;;;-0.50;99.90;;;;;;4834244;29;20053;-72
2023/03/12 06:22:21;;;;;;;25.33;23.48;;;-0.50;99.90;;;;;;4824944;29;20076;-72
2023/03/12 06:24:48;;;;;;;24.50;22.85;;;-0.40;99.90;;;;;;4822599;29;20045;-70
2023/03/12 06:27:16;;;;;;;25.35;23.55;;;-0.40;99.90;;;;;;4812955;29;20567;-72
2023/03/12 06:29:46;;;;;;;25.52;23.63;;;-0.40;99.90;;;;;;4842838;29;20041;-70
2023/03/12 06:32:13;;;;;;;24.48;22.92;;;-0.30;99.90;;;;;;4823023;29;20234;-71
2023/03/12 06:34:40;;;;;;;26.00;23.63;;;-0.30;99.90;;;;;;4834113;29;20060;-71
2023/03/12 06:37:06;;;;;;;25.30;23.30;;;-0.20;99.90;;;;;;4839371;29;20053;-71
2023/03/12 06:39:33;;;;;;;25.13;23.00;;;-0.20;99.90;;;;;;4839819;29;20044;-70
2023/03/12 06:42:00;;;;;;;24.25;22.70;;;-0.10;99.90;;;;;;4833265;29;20048;-71
2023/03/12 06:44:27;;;;;;;25.70;23.70;;;-0.10;99.90;;;;;;4835237;29;20049;-72
2023/03/12 06:46:54;;;;;;;25.38;23.23;;;-0.10;99.90;;;;;;4855658;29;20309;-70
2023/03/12 06:49:21;;;;;;;24.45;22.60;;;0.00;99.90;;;;;;4860120;29;20051;-71
2023/03/12 06:51:47;;;;;;;25.15;23.02;;;0.10;99.90;;;;;;4855387;29;20245;-71
2023/03/12 06:54:14;;;;;;;22.90;21.60;;;0.10;99.90;;;;;;4841068;29;20490;-71
2023/03/12 06:56:41;;;;;;;25.08;23.45;;;0.10;99.90;;;;;;4859255;29;20041;-70
2023/03/12 06:59:08;;;;;;;25.27;23.40;;;0.10;99.90;;;;;;4853167;29;20046;-70
2023/03/12 07:01:34;;;;;;;24.52;22.90;;;0.10;99.90;;;;;;4857892;29;20347;-71
2023/03/12 07:04:01;;;;;;;24.67;22.90;;;0.20;99.90;;;;;;4836848;29;20047;-69
2023/03/12 07:06:28;;;;;;;26.73;24.63;;;0.20;99.90;;;;;;4817396;29;20417;-71
2023/03/12 07:08:55;;;;;;;25.42;23.30;;;0.20;99.90;;;;;;4834549;29;20512;-71
2023/03/12 07:11:22;;;;;;;26.10;23.73;;;0.20;99.90;;;;;;4856555;29;20061;-70
2023/03/12 07:13:49;;;;;;;25.65;23.25;;;0.20;99.90;;;;;;4856249;29;20045;-70
2023/03/12 07:16:15;;;;;;;24.80;22.77;;;0.20;99.90;;;;;;4839918;29;20053;-70
2023/03/12 07:18:42;;;;;;;25.83;24.23;;;0.20;99.90;;;;;;4838948;29;20048;-70
2023/03/12 07:21:09;;;;;;;30.63;27.83;;;0.30;99.90;;;;;;4851070;29;20326;-70
2023/03/12 07:23:35;;;;;;;27.45;25.20;;;0.40;99.90;;;;;;4837248;29;20052;-70
2023/03/12 07:26:04;;;;;;;27.83;25.92;;;0.50;99.90;;;;;;4833597;29;20056;-71
2023/03/12 07:28:31;;;;;;;27.00;24.67;;;0.60;99.90;;;;;;4825414;29;20113;-71
2023/03/12 07:31:03;;;;;;;26.23;24.40;;;0.70;99.90;;;;;;4855441;29;20049;-71
2023/03/12 07:33:29;;;;;;;28.60;26.38;;;0.70;99.90;;;;;;4851322;29;20064;-70
2023/03/12 07:35:56;;;;;;;27.27;25.60;;;0.80;99.90;;;;;;4837402;29;20041;-70
2023/03/12 07:38:23;;;;;;;27.83;25.52;;;0.70;99.90;;;;;;4853912;29;20536;-70
2023/03/12 07:40:52;;;;;;;26.80;24.88;;;0.80;99.90;;;;;;4857085;29;20535;-71
2023/03/12 07:43:19;;;;;;;28.65;26.70;;;0.80;99.90;;;;;;4823718;29;20320;-71
2023/03/12 07:45:49;;;;;;;26.42;24.77;;;0.90;99.90;;;;;;4818042;29;20045;-70
2023/03/12 07:48:18;;;;;;;26.90;25.02;;;0.90;99.90;;;;;;4846257;29;20073;-70
2023/03/12 07:50:45;;;;;;;27.52;25.85;;;0.90;99.90;;;;;;4850690;29;20543;-71
2023/03/12 07:53:12;;;;;;;27.33;25.38;;;0.90;99.90;;;;;;4849421;29;20057;-70
2023/03/12 07:55:39;;;;;;;28.55;26.23;;;0.90;99.90;;;;;;4858724;29;20123;-71
2023/03/12 07:58:06;;;;;;;29.80;27.70;;;0.90;99.90;;;;;;4832770;29;20042;-70
2023/03/12 08:00:33;;;;;;;29.00;27.20;;;1.00;99.90;;;;;;4857110;29;20297;-71
2023/03/12 08:02:59;;;;;;;27.85;26.05;;;1.00;99.90;;;;;;4822441;29;20572;-72
2023/03/12 08:05:26;;;;;;;27.92;26.13;;;1.10;99.90;;;;;;4840892;29;20047;-70
2023/03/12 08:07:54;;;;;;;38.63;36.10;;;1.20;99.90;;;;;;4835754;29;20955;-71
2023/03/12 08:10:21;;;;;;;35.13;32.88;;;1.20;99.90;;;;;;4849103;29;20113;-72
2023/03/12 08:12:48;;;;;;;34.58;32.60;;;1.20;99.90;;;;;;4824357;29;20448;-71
2023/03/12 08:15:15;;;;;;;35.60;33.20;;;1.20;99.90;;;;;;4834228;29;20132;-71
2023/03/12 08:17:42;;;;;;;34.42;32.63;;;1.20;99.90;;;;;;4825430;29;20207;-70
2023/03/12 08:20:09;;;;;;;37.17;35.05;;;1.20;99.90;;;;;;4847774;29;20041;-69
2023/03/12 08:22:37;;;;;;;36.20;34.20;;;1.20;99.90;;;;;;4837463;29;20044;-70
2023/03/12 08:25:05;;;;;;;33.90;31.58;;;1.20;99.90;;;;;;4846137;29;20053;-70
2023/03/12 08:27:32;;;;;;;33.33;31.33;;;1.30;99.90;;;;;;4855971;29;20033;-70
2023/03/12 08:29:59;;;;;;;36.80;34.00;;;1.30;99.90;;;;;;4854298;29;20045;-70
2023/03/12 08:32:26;;;;;;;35.88;33.65;;;1.30;99.90;;;;;;4851933;29;20047;-70
2023/03/12 08:34:53;;;;;;;33.25;31.25;;;1.30;99.90;;;;;;4856391;29;20033;-70
2023/03/12 08:37:19;;;;;;;31.02;28.80;;;1.30;99.90;;;;;;4855855;29;20038;-69
2023/03/12 08:39:46;;;;;;;32.75;30.40;;;1.20;99.90;;;;;;4828841;29;20584;-70
2023/03/12 08:42:12;;;;;;;31.23;29.05;;;1.20;99.90;;;;;;4841052;29;20044;-72
2023/03/12 08:44:39;;;;;;;34.85;32.85;;;1.30;99.90;;;;;;4836920;29;20096;-72
2023/03/12 08:47:06;;;;;;;37.22;34.55;;;1.30;99.90;;;;;;4829703;29;20061;-71
2023/03/12 08:49:32;;;;;;;35.70;32.80;;;1.40;99.90;;;;;;4863480;29;20061;-72
2023/03/12 08:51:59;;;;;;;30.60;28.10;;;1.40;99.90;;;;;;4835547;29;20048;-71
2023/03/12 08:54:26;;;;;;;32.85;30.63;;;1.40;99.90;;;;;;4842118;29;20077;-71
2023/03/12 08:56:52;;;;;;;32.60;30.45;;;1.40;99.90;;;;;;4852551;29;20044;-72
2023/03/12 08:59:21;;;;;;;34.10;31.73;;;1.40;99.90;;;;;;4851097;29;21085;-71
2023/03/12 09:01:48;;;;;;;35.90;32.83;;;1.30;99.90;;;;;;4833034;29;20051;-71
2023/03/12 09:04:15;;;;;;;35.63;33.53;;;1.30;99.90;;;;;;4848188;29;21201;-71
2023/03/12 09:06:42;;;;;;;32.88;30.85;;;1.30;99.90;;;;;;4853890;29;20547;-71
2023/03/12 09:09:08;;;;;;;32.40;30.17;;;1.30;99.90;;;;;;4834029;29;20268;-71
2023/03/12 09:11:38;;;;;;;35.42;32.95;;;1.40;99.90;;;;;;4834702;29;20448;-71
2023/03/12 09:14:05;;;;;;;34.33;31.60;;;1.50;99.90;;;;;;4846988;29;20165;-71
2023/03/12 09:16:51;;;;;;;37.42;34.63;;;1.50;99.90;;;;;;4834719;29;20041;-71
2023/03/12 09:19:19;;;;;;;37.25;34.10;;;1.50;99.90;;;;;;4850324;29;20524;-73
2023/03/12 09:21:46;;;;;;;30.60;28.52;;;1.50;99.90;;;;;;4823590;29;20042;-72
2023/03/12 09:24:12;;;;;;;29.35;27.48;;;1.40;99.90;;;;;;4848802;29;20050;-70
2023/03/12 09:26:39;;;;;;;25.40;23.60;;;1.30;99.90;;;;;;4854420;29;20128;-71
2023/03/12 09:29:06;;;;;;;25.75;22.83;;;1.10;99.90;;;;;;4850825;29;20033;-72
2023/03/12 09:31:33;;;;;;;20.90;19.27;;;1.00;99.90;;;;;;4854590;29;20045;-72
2023/03/12 09:34:00;;;;;;;20.30;18.58;;;0.90;99.90;;;;;;4836236;29;20048;-71
2023/03/12 09:36:27;;;;;;;20.60;18.52;;;0.80;99.90;;;;;;4835847;29;20069;-72
2023/03/12 09:38:53;;;;;;;89.38;51.88;;;0.80;99.90;;;;;;4853102;29;20045;-71
2023/03/12 09:41:27;;;;;;;24.83;21.20;;;0.80;99.90;;;;;;4838162;29;20249;-72
2023/03/12 09:44:12;;;;;;;20.02;18.02;;;0.80;99.90;;;;;;4835368;29;20079;-70
2023/03/12 09:47:00;;;;;;;;;;;0.80;99.90;;;;;;4852055;29;20707;-72
2023/03/12 09:49:32;;;;;;;28.67;18.98;;;0.80;99.90;;;;;;4829035;29;20621;-72
2023/03/12 09:52:06;;;;;;;24.08;19.13;;;0.90;99.90;;;;;;4825721;29;20050;-73
2023/03/12 09:54:43;;;;;;;30.75;17.02;;;0.90;99.90;;;;;;4847267;29;20740;-72
2023/03/12 09:57:23;;;;;;;27.30;19.38;;;0.90;99.90;;;;;;4825613;29;20325;-73
2023/03/12 09:59:51;;;;;;;26.88;17.25;;;0.90;99.90;;;;;;4851207;29;20053;-70
2023/03/12 10:02:28;;;;;;;18.40;16.48;;;0.90;99.90;;;;;;4839830;29;20236;-71
2023/03/12 10:05:04;;;;;;;23.70;18.33;;;0.90;99.90;;;;;;4830088;29;20052;-72
2023/03/12 10:07:46;;;;;;;18.95;17.05;;;0.80;99.90;;;;;;4819577;29;20437;-73
2023/03/12 10:10:21;;;;;;;23.65;18.02;;;0.70;99.90;;;;;;4844922;29;20050;-73
2023/03/12 10:12:50;;;;;;;24.00;18.83;;;0.80;99.90;;;;;;4830897;29;20387;-72
2023/03/12 10:15:20;;;;;;;28.17;18.15;;;0.80;99.90;;;;;;4825177;29;20049;-73
2023/03/12 10:18:09;;;;;;;23.15;16.85;;;0.80;99.90;;;;;;4855867;29;20052;-73
2023/03/12 10:21:00;;;;;;;31.63;23.00;;;0.80;99.90;;;;;;4839907;29;20086;-72
2023/03/12 10:23:33;;;;;;;36.63;20.63;;;0.90;99.90;;;;;;4836589;29;20056;-73
2023/03/12 10:26:17;;;;;;;30.05;19.52;;;0.90;99.90;;;;;;4850463;29;20050;-73
2023/03/12 10:28:47;;;;;;;23.58;17.90;;;1.00;99.90;;;;;;4850099;29;20439;-73
2023/03/12 10:31:29;;;;;;;34.83;22.63;;;1.00;99.90;;;;;;4835010;29;20056;-72
2023/03/12 10:33:58;;;;;;;20.67;17.00;;;1.10;99.90;;;;;;4851223;29;20129;-73
2023/03/12 10:36:39;;;;;;;29.95;21.65;;;1.10;99.90;;;;;;4835760;29;20076;-72
2023/03/12 10:39:18;;;;;;;31.60;21.02;;;1.10;99.90;;;;;;4829004;29;20045;-73
2023/03/12 10:41:46;;;;;;;24.83;18.55;;;1.20;99.90;;;;;;4852164;29;20064;-73
2023/03/12 10:44:20;;;;;;;31.27;21.92;;;1.20;99.90;;;;;;4814990;29;20038;-73
2023/03/12 10:47:08;;;;;;;28.05;19.48;;;1.30;99.90;;;;;;4820122;29;20132;-73
2023/03/12 10:49:36;;;;;;;25.35;19.23;;;1.40;99.90;;;;;;4833595;29;20041;-73
2023/03/12 10:52:04;;;;;;;24.25;20.95;;;1.30;99.90;;;;;;4849279;29;20152;-72
2023/03/12 10:54:34;;;;;;;30.05;21.70;;;1.40;99.90;;;;;;4811394;29;20234;-73
2023/03/12 10:57:01;;;;;;;27.17;21.52;;;1.30;99.90;;;;;;4845312;29;20042;-73
2023/03/12 10:59:36;;;;;;;32.63;23.35;;;1.40;99.90;;;;;;4831107;29;20045;-72
2023/03/12 11:02:28;;;;;;;30.30;21.10;;;1.30;99.90;;;;;;4836584;29;20072;-73
2023/03/12 11:04:55;;;;;;;37.45;26.17;;;1.40;99.90;;;;;;4866743;23;20139;-73
2023/03/12 11:07:34;;;;;;;29.92;24.27;;;1.40;99.90;;;;;;4833739;29;20041;-71
2023/03/12 11:10:16;;;;;;;34.25;25.58;;;1.40;99.90;;;;;;4844475;29;20053;-72
2023/03/12 11:13:20;;;;;;;36.22;25.85;;;1.50;99.90;;;;;;4839779;29;20573;-72
2023/03/12 11:15:47;;;;;;;39.90;27.52;;;1.60;99.90;;;;;;4841022;29;20300;-71
2023/03/12 11:18:28;;;;;;;35.08;26.00;;;1.60;99.90;;;;;;4836624;29;20057;-71
2023/03/12 11:21:08;;;;;;;43.22;27.83;;;1.60;99.90;;;;;;4846966;29;20036;-74
2023/03/12 11:23:38;;;;;;;36.67;25.52;;;1.60;99.90;;;;;;4843841;29;20521;-73
2023/03/12 11:26:19;;;;;;;29.30;21.90;;;1.60;99.90;;;;;;4832858;29;20129;-73
2023/03/12 11:28:48;;;;;;;33.70;22.08;;;1.60;99.90;;;;;;4834654;29;20564;-72
2023/03/12 11:31:23;;;;;;;38.13;23.65;;;1.60;99.90;;;;;;4840972;29;20053;-72
2023/03/12 11:33:53;;;;;;;25.80;19.50;;;1.60;99.90;;;;;;4838116;29;20069;-73
2023/03/12 11:36:42;;;;;;;37.42;24.00;;;1.60;99.90;;;;;;4846326;29;20049;-72
2023/03/12 11:40:10;;;;;;;85.45;47.70;;;1.60;99.90;;;;;;4837985;29;20054;-73
2023/03/12 11:42:40;;;;;;;39.50;28.60;;;1.70;99.90;;;;;;4796568;29;20108;-72
2023/03/12 11:45:13;;;;;;;44.97;30.65;;;1.70;99.90;;;;;;4845644;29;20140;-71
2023/03/12 11:47:56;;;;;;;45.20;33.78;;;1.70;99.90;;;;;;4841677;29;20128;-71
2023/03/12 11:50:37;;;;;;;53.10;36.75;;;1.80;99.90;;;;;;4857075;29;20435;-71
2023/03/12 11:53:48;;;;;;;49.60;34.65;;;1.80;99.90;;;;;;4835744;29;20049;-71
2023/03/12 11:56:15;;;;;;;60.28;39.72;;;1.80;99.90;;;;;;4844526;29;20060;-71
2023/03/12 11:58:53;;;;;;;49.03;34.03;;;1.80;99.90;;;;;;4842499;29;20041;-73
2023/03/12 12:01:52;;;;;;;36.33;26.33;;;1.90;99.90;;;;;;4849105;29;20068;-72
2023/03/12 12:04:56;;;;;;;48.10;33.10;;;1.80;99.90;;;;;;4841022;29;20084;-72
2023/03/12 12:07:40;;;;;;;55.53;36.70;;;1.80;99.90;;;;;;4844817;29;20259;-72
2023/03/12 12:10:36;;;;;;;46.38;32.70;;;1.80;99.90;;;;;;4841878;29;20038;-71
2023/03/12 12:13:25;;;;;;;51.20;34.20;;;1.80;99.90;;;;;;4832975;29;20576;-71
2023/03/12 12:16:30;;;;;;;54.88;39.92;;;1.80;99.90;;;;;;4848854;29;20385;-72
2023/03/12 12:19:25;;;;;;;45.17;31.30;;;1.80;99.90;;;;;;4851440;29;20516;-71
2023/03/12 12:22:05;;;;;;;80.72;52.03;;;1.80;99.90;;;;;;4843056;29;20100;-73
2023/03/12 12:24:38;;;;;;;81.07;53.92;;;1.80;99.90;;;;;;4849550;29;21995;-75
2023/03/12 12:27:30;;;;;;;103.85;62.40;;;1.80;99.90;;;;;;4851960;29;20056;-71
2023/03/12 12:30:03;;;;;;;116.38;71.47;;;1.80;99.90;;;;;;4844616;29;20072;-70
2023/03/12 12:32:36;;;;;;;97.20;58.30;;;1.90;99.90;;;;;;4848175;29;20179;-71
2023/03/12 12:35:18;;;;;;;65.57;41.25;;;1.90;99.90;;;;;;4848493;29;20101;-70
2023/03/12 12:38:14;;;;;;;55.22;35.35;;;1.90;99.90;;;;;;4855167;29;20072;-70
2023/03/12 12:40:50;;;;;;;84.88;47.22;;;2.00;99.90;;;;;;4846415;29;20049;-73
2023/03/12 12:43:40;;;;;;;82.05;42.42;;;2.10;99.90;;;;;;4847385;29;20594;-71
2023/03/12 12:46:23;;;;;;;87.95;46.35;;;2.20;99.90;;;;;;4850165;29;20061;-72
2023/03/12 12:48:52;;;;;;;66.28;37.90;;;2.20;99.90;;;;;;4848394;29;20054;-73
2023/03/12 12:51:24;;;;;;;86.55;52.10;;;2.30;99.90;;;;;;4846651;29;20072;-71
2023/03/12 12:54:09;;;;;;;61.22;39.63;;;2.40;99.90;;;;;;4849951;29;20616;-72
2023/03/12 12:56:42;;;;;;;;;;;2.40;99.90;;;;;;4848505;29;20242;-71